createdAt,value
2019-02-28T00:01:59.664Z,62.10
2019-02-28T00:04:32.744Z,62.80
2019-02-28T00:07:00.844Z,61.90
2019-02-28T00:09:31.095Z,62.20
2019-02-28T00:12:01.610Z,61.30
2019-02-28T00:14:31.272Z,61.20
2019-02-28T00:17:02.144Z,61.10
2019-02-28T00:19:32.919Z,61.20
2019-02-28T00:22:02.667Z,62.00
2019-02-28T00:24:32.357Z,61.50
2019-02-28T00:27:01.999Z,61.30
2019-02-28T00:29:33.691Z,61.30
2019-02-28T00:32:04.856Z,61.10
2019-02-28T00:34:36.326Z,60.90
2019-02-28T00:37:05.979Z,61.00
2019-02-28T00:39:36.927Z,61.00
2019-02-28T00:42:07.599Z,61.20
2019-02-28T00:44:37.419Z,62.60
2019-02-28T00:47:07.340Z,63.00
2019-02-28T00:49:37.383Z,63.20
2019-02-28T00:52:08.115Z,63.60
2019-02-28T00:54:43.128Z,62.30
2019-02-28T00:57:11.184Z,61.70
2019-02-28T00:59:43.217Z,62.30
2019-02-28T01:02:12.991Z,62.00
2019-02-28T01:04:44.410Z,61.50
2019-02-28T01:07:16.265Z,61.20
2019-02-28T01:09:48.020Z,61.20
2019-02-28T01:12:19.320Z,61.50
2019-02-28T01:14:52.715Z,61.20
2019-02-28T01:17:24.027Z,62.00
2019-02-28T01:19:54.941Z,61.80
2019-02-28T01:22:26.733Z,61.40
2019-02-28T01:24:58.559Z,61.70
2019-02-28T01:27:28.355Z,61.40
2019-02-28T01:30:00.396Z,61.40
2019-02-28T01:32:30.135Z,61.20
2019-02-28T01:35:00.023Z,61.10
2019-02-28T01:37:30.771Z,61.20
2019-02-28T01:40:01.029Z,61.20
2019-02-28T01:42:32.837Z,61.10
2019-02-28T01:45:02.606Z,61.10
2019-02-28T01:47:32.327Z,61.20
2019-02-28T01:50:02.156Z,61.10
2019-02-28T01:52:32.828Z,61.90
2019-02-28T01:55:02.499Z,61.20
2019-02-28T01:57:32.730Z,61.80
2019-02-28T02:00:04.671Z,61.70
2019-02-28T02:02:34.336Z,61.40
2019-02-28T02:05:03.996Z,61.10
2019-02-28T02:07:35.959Z,61.20
2019-02-28T02:10:09.439Z,61.20
2019-02-28T02:12:39.583Z,61.20
2019-02-28T02:15:10.153Z,61.20
2019-02-28T02:17:39.820Z,61.10
2019-02-28T02:20:11.663Z,60.40
2019-02-28T02:22:44.443Z,61.00
2019-02-28T02:25:15.473Z,61.00
2019-02-28T02:27:45.524Z,60.90
2019-02-28T02:30:18.564Z,61.00
2019-02-28T02:32:49.949Z,61.10
2019-02-28T02:35:21.462Z,61.40
2019-02-28T02:37:53.379Z,61.30
2019-02-28T02:40:24.333Z,61.50
2019-02-28T02:42:55.522Z,61.10
2019-02-28T02:45:25.474Z,61.20
2019-02-28T02:47:55.518Z,61.10
2019-02-28T02:50:34.026Z,61.10
2019-02-28T02:52:57.365Z,61.10
2019-02-28T02:55:28.974Z,61.10
2019-02-28T02:57:58.988Z,61.20
2019-02-28T03:00:28.905Z,61.10
2019-02-28T03:02:58.458Z,61.10
2019-02-28T03:05:34.931Z,61.10
2019-02-28T03:08:02.521Z,61.00
2019-02-28T03:10:32.227Z,61.50
2019-02-28T03:13:04.759Z,62.50
2019-02-28T03:15:33.176Z,61.90
2019-02-28T03:18:04.366Z,61.50
2019-02-28T03:20:36.043Z,61.30
2019-02-28T03:23:05.688Z,61.10
2019-02-28T03:25:35.339Z,61.10
2019-02-28T03:28:05.027Z,61.20
2019-02-28T03:30:37.459Z,61.40
2019-02-28T03:33:08.387Z,61.20
2019-02-28T03:35:43.926Z,61.20
2019-02-28T03:38:12.762Z,61.30
2019-02-28T03:40:43.558Z,61.70
2019-02-28T03:43:14.795Z,61.70
2019-02-28T03:45:44.555Z,61.50
2019-02-28T03:48:14.276Z,61.50
2019-02-28T03:50:43.945Z,61.60
2019-02-28T03:53:19.411Z,61.50
2019-02-28T03:55:45.597Z,61.60
2019-02-28T03:58:15.388Z,61.40
2019-02-28T04:00:45.507Z,61.30
2019-02-28T04:03:16.525Z,61.20
2019-02-28T04:05:46.295Z,61.10
2019-02-28T04:08:17.849Z,61.10
2019-02-28T04:10:49.289Z,61.10
2019-02-28T04:13:20.453Z,61.40
2019-02-28T04:16:07.754Z,61.30
2019-02-28T04:18:23.653Z,61.30
2019-02-28T04:20:53.370Z,61.40
2019-02-28T04:23:24.791Z,61.30
2019-02-28T04:25:56.872Z,62.00
2019-02-28T04:28:26.092Z,61.20
2019-02-28T04:30:55.792Z,61.30
2019-02-28T04:33:26.351Z,61.50
2019-02-28T04:35:56.756Z,61.50
2019-02-28T04:38:27.576Z,61.40
2019-02-28T04:41:00.022Z,61.20
2019-02-28T04:43:29.814Z,61.20
2019-02-28T04:45:59.566Z,61.30
2019-02-28T04:48:29.191Z,61.40
2019-02-28T04:51:02.241Z,61.50
2019-02-28T04:53:31.200Z,61.50
2019-02-28T04:56:00.895Z,61.40
2019-02-28T04:58:32.558Z,61.40
2019-02-28T05:01:02.201Z,61.40
2019-02-28T05:03:33.219Z,61.60
2019-02-28T05:06:02.932Z,61.60
2019-02-28T05:08:38.614Z,61.80
2019-02-28T05:11:06.407Z,61.80
2019-02-28T05:13:37.235Z,61.60
2019-02-28T05:16:09.403Z,61.70
2019-02-28T05:18:41.727Z,61.10
2019-02-28T05:21:11.807Z,61.90
2019-02-28T05:23:41.524Z,62.20
2019-02-28T05:26:11.178Z,61.90
2019-02-28T05:28:42.812Z,62.00
2019-02-28T05:31:14.415Z,61.70
2019-02-28T05:33:44.128Z,61.60
2019-02-28T05:36:13.863Z,62.00
2019-02-28T05:38:45.419Z,61.80
2019-02-28T05:41:16.098Z,61.90
2019-02-28T05:43:45.641Z,61.90
2019-02-28T05:46:17.144Z,61.90
2019-02-28T05:48:47.782Z,61.90
2019-02-28T05:51:17.524Z,61.80
2019-02-28T05:53:48.167Z,61.70
2019-02-28T05:56:18.891Z,61.60
2019-02-28T05:58:49.314Z,61.90
2019-02-28T06:01:19.879Z,61.90
2019-02-28T06:03:52.051Z,61.60
2019-02-28T06:06:21.724Z,61.60
2019-02-28T06:08:51.415Z,61.60
2019-02-28T06:11:21.571Z,61.70
2019-02-28T06:13:52.832Z,61.80
2019-02-28T06:16:22.803Z,61.70
2019-02-28T06:18:52.552Z,61.80
2019-02-28T06:21:23.421Z,61.80
2019-02-28T06:23:55.636Z,61.50
2019-02-28T06:26:26.474Z,61.50
2019-02-28T06:28:57.095Z,61.70
2019-02-28T06:31:26.789Z,61.60
2019-02-28T06:33:56.535Z,61.80
2019-02-28T06:36:29.184Z,61.60
2019-02-28T06:38:57.552Z,61.50
2019-02-28T06:41:27.198Z,61.50
2019-02-28T06:43:58.438Z,62.20
2019-02-28T06:46:28.091Z,61.40
2019-02-28T06:49:05.806Z,61.30
2019-02-28T06:51:31.967Z,61.10
2019-02-28T06:54:04.458Z,61.40
2019-02-28T06:56:32.786Z,61.40
2019-02-28T06:59:04.895Z,61.20
2019-02-28T07:01:33.713Z,61.10
2019-02-28T07:04:03.589Z,60.90
2019-02-28T07:06:35.973Z,60.80
2019-02-28T07:09:07.193Z,60.90
2019-02-28T07:11:38.767Z,61.00
2019-02-28T07:14:12.937Z,61.80
2019-02-28T07:16:42.803Z,61.10
2019-02-28T07:19:12.606Z,61.00
2019-02-28T07:21:44.255Z,61.10
2019-02-28T07:24:14.172Z,61.10
2019-02-28T07:26:45.523Z,61.00
2019-02-28T07:29:15.189Z,61.40
2019-02-28T07:31:45.175Z,61.30
2019-02-28T07:34:19.567Z,61.20
2019-02-28T07:36:47.623Z,61.00
2019-02-28T07:39:17.271Z,60.80
2019-02-28T07:41:47.121Z,60.70
2019-02-28T07:44:21.035Z,60.60
2019-02-28T07:46:48.306Z,60.90
2019-02-28T07:49:17.988Z,63.70
2019-02-28T07:51:47.690Z,64.50
2019-02-28T07:54:17.331Z,63.90
2019-02-28T07:56:46.979Z,63.90
2019-02-28T07:59:17.103Z,65.40
2019-02-28T08:01:46.880Z,65.00
2019-02-28T08:04:19.194Z,68.20
2019-02-28T08:06:49.144Z,67.10
2019-02-28T08:09:26.599Z,68.30
2019-02-28T08:11:56.744Z,67.40
2019-02-28T08:14:27.608Z,68.60
2019-02-28T08:16:57.527Z,67.00
2019-02-28T08:19:28.185Z,66.40
2019-02-28T08:21:58.029Z,65.10
2019-02-28T08:24:28.975Z,64.30
2019-02-28T08:27:00.015Z,62.80
2019-02-28T08:29:30.119Z,62.30
2019-02-28T08:32:00.043Z,68.50
2019-02-28T08:34:29.802Z,66.50
2019-02-28T08:37:00.732Z,62.00
2019-02-28T08:39:30.548Z,66.50
2019-02-28T08:42:04.579Z,65.30
2019-02-28T08:44:34.063Z,68.10
2019-02-28T08:47:04.960Z,68.90
2019-02-28T08:49:34.705Z,67.30
2019-02-28T08:52:06.718Z,67.30
2019-02-28T08:54:36.587Z,65.20
2019-02-28T08:57:06.494Z,69.20
2019-02-28T08:59:37.655Z,68.80
2019-02-28T09:02:07.447Z,69.20
2019-02-28T09:04:41.209Z,70.30
2019-02-28T09:07:08.503Z,71.10
2019-02-28T09:09:39.752Z,68.30
2019-02-28T09:12:09.570Z,67.60
2019-02-28T09:14:39.427Z,66.30
2019-02-28T09:17:10.884Z,67.30
2019-02-28T09:19:40.738Z,66.40
2019-02-28T09:22:10.684Z,65.60
2019-02-28T09:24:40.444Z,67.00
2019-02-28T09:27:12.174Z,66.70
2019-02-28T09:29:45.143Z,69.10
2019-02-28T09:32:14.795Z,69.20
2019-02-28T09:34:45.820Z,70.60
2019-02-28T09:37:19.151Z,69.40
2019-02-28T09:39:51.244Z,71.00
2019-02-28T09:42:21.641Z,70.70
2019-02-28T09:44:51.356Z,71.50
2019-02-28T09:47:23.343Z,67.10
2019-02-28T09:49:54.363Z,67.60
2019-02-28T09:52:24.170Z,68.90
2019-02-28T09:54:56.335Z,67.40
2019-02-28T09:57:26.524Z,68.20
2019-02-28T09:59:56.152Z,64.80
2019-02-28T10:02:27.883Z,67.60
2019-02-28T10:04:57.501Z,68.50
2019-02-28T10:07:27.247Z,69.60
2019-02-28T10:09:56.913Z,71.50
2019-02-28T10:12:26.806Z,70.10
2019-02-28T10:14:56.443Z,65.50
2019-02-28T10:17:28.904Z,71.90
2019-02-28T10:19:58.850Z,69.70
2019-02-28T10:22:28.716Z,69.10
2019-02-28T10:24:58.310Z,67.60
2019-02-28T10:27:28.158Z,67.20
2019-02-28T10:29:57.895Z,71.60
2019-02-28T10:32:27.596Z,73.30
2019-02-28T10:34:58.341Z,73.30
2019-02-28T10:37:29.419Z,70.90
2019-02-28T10:39:59.075Z,71.40
2019-02-28T10:42:28.791Z,69.80
2019-02-28T10:45:03.646Z,72.80
2019-02-28T10:47:32.827Z,76.10
2019-02-28T10:50:05.456Z,75.60
2019-02-28T10:52:35.016Z,72.30
2019-02-28T10:55:05.239Z,69.40
2019-02-28T10:57:37.271Z,73.20
2019-02-28T11:00:09.347Z,71.50
2019-02-28T11:02:39.527Z,71.80
2019-02-28T11:05:15.356Z,76.40
2019-02-28T11:07:46.507Z,77.50
2019-02-28T11:10:16.842Z,76.30
2019-02-28T11:12:46.715Z,83.20
2019-02-28T11:15:20.175Z,82.30
2019-02-28T11:17:51.110Z,84.20
2019-02-28T11:20:22.444Z,81.40
2019-02-28T11:22:52.978Z,79.50
2019-02-28T11:25:24.358Z,77.90
2019-02-28T11:27:55.754Z,80.10
2019-02-28T11:30:25.715Z,75.00
2019-02-28T11:33:03.216Z,74.10
2019-02-28T11:35:29.959Z,73.20
2019-02-28T11:37:59.859Z,75.20
2019-02-28T11:40:31.407Z,73.00
2019-02-28T11:43:03.680Z,72.50
2019-02-28T11:45:34.060Z,72.40
2019-02-28T11:48:05.172Z,76.40
2019-02-28T11:50:35.319Z,74.50
2019-02-28T11:53:06.053Z,74.90
2019-02-28T11:55:35.692Z,73.10
2019-02-28T11:58:05.447Z,77.30
2019-02-28T12:00:35.660Z,74.80
2019-02-28T12:03:07.523Z,75.40
2019-02-28T12:05:37.091Z,80.80
2019-02-28T12:08:10.434Z,73.50
2019-02-28T12:10:38.163Z,74.00
2019-02-28T12:13:09.171Z,76.50
2019-02-28T12:15:40.067Z,82.50
2019-02-28T12:18:09.943Z,80.20
2019-02-28T12:20:39.587Z,76.30
2019-02-28T12:23:09.426Z,83.50
2019-02-28T12:25:42.729Z,80.50
2019-02-28T12:28:11.455Z,80.60
2019-02-28T12:30:41.460Z,82.70
2019-02-28T12:33:11.770Z,80.40
2019-02-28T12:35:42.392Z,85.60
2019-02-28T12:38:12.036Z,85.60
2019-02-28T12:40:42.577Z,81.80
2019-02-28T12:43:13.139Z,82.00
2019-02-28T12:45:44.877Z,80.20
2019-02-28T12:48:15.644Z,82.70
2019-02-28T12:50:45.378Z,80.50
2019-02-28T12:53:15.228Z,86.50
2019-02-28T12:55:45.063Z,81.60
2019-02-28T12:58:15.908Z,85.50
2019-02-28T13:00:47.120Z,82.70
2019-02-28T13:03:20.282Z,80.80
2019-02-28T13:05:49.488Z,76.90
2019-02-28T13:08:20.650Z,79.20
2019-02-28T13:10:50.419Z,82.60
2019-02-28T13:13:21.635Z,73.80
2019-02-28T13:15:54.975Z,78.70
2019-02-28T13:18:26.925Z,81.30
2019-02-28T13:20:58.192Z,82.10
2019-02-28T13:23:32.846Z,82.20
2019-02-28T13:26:00.947Z,85.10
2019-02-28T13:28:34.150Z,78.90
2019-02-28T13:31:05.366Z,81.00
2019-02-28T13:33:37.023Z,74.30
2019-02-28T13:36:07.278Z,81.40
2019-02-28T13:38:40.515Z,79.40
2019-02-28T13:41:12.064Z,81.00
2019-02-28T13:43:42.010Z,86.70
2019-02-28T13:46:13.045Z,88.40
2019-02-28T13:48:43.373Z,89.30
2019-02-28T13:51:13.106Z,90.60
2019-02-28T13:53:42.867Z,91.10
2019-02-28T13:56:14.034Z,91.30
2019-02-28T13:58:44.672Z,90.20
2019-02-28T14:01:19.412Z,92.00
2019-02-28T14:03:46.962Z,93.10
2019-02-28T14:06:19.734Z,91.90
2019-02-28T14:08:48.073Z,92.50
2019-02-28T14:11:19.193Z,95.10
2019-02-28T14:13:50.570Z,93.50
2019-02-28T14:16:20.484Z,92.60
2019-02-28T14:18:50.715Z,93.90
2019-02-28T14:21:22.323Z,92.90
2019-02-28T14:23:55.898Z,91.40
2019-02-28T14:26:25.151Z,92.20
2019-02-28T14:28:55.165Z,86.10
2019-02-28T14:31:24.895Z,88.10
2019-02-28T14:33:56.977Z,86.60
2019-02-28T14:36:26.873Z,79.90
2019-02-28T14:38:57.916Z,79.10
2019-02-28T14:41:28.412Z,74.20
2019-02-28T14:44:00.714Z,79.80
2019-02-28T14:46:30.283Z,75.50
2019-02-28T14:49:00.398Z,74.10
2019-02-28T14:51:31.411Z,72.10
2019-02-28T14:54:02.451Z,82.20
2019-02-28T14:56:32.659Z,78.60
2019-02-28T14:59:02.310Z,73.60
2019-02-28T15:01:32.075Z,89.10
2019-02-28T15:04:02.713Z,84.20
2019-02-28T15:06:33.865Z,84.20
2019-02-28T15:09:04.598Z,83.20
2019-02-28T15:11:34.913Z,83.80
2019-02-28T15:14:08.759Z,89.00
2019-02-28T15:16:37.682Z,85.60
2019-02-28T15:19:07.478Z,86.90
2019-02-28T15:21:42.247Z,84.60
2019-02-28T15:24:10.333Z,83.90
2019-02-28T15:26:39.962Z,82.00
2019-02-28T15:29:09.580Z,79.20
2019-02-28T15:31:40.450Z,85.10
2019-02-28T15:34:11.272Z,85.50
2019-02-28T15:36:40.916Z,80.20
2019-02-28T15:39:10.783Z,84.10
2019-02-28T15:41:40.846Z,84.00
2019-02-28T15:44:10.891Z,81.40
2019-02-28T15:46:40.545Z,81.30
2019-02-28T15:49:10.958Z,89.20
2019-02-28T15:51:40.799Z,89.50
2019-02-28T15:54:10.448Z,85.70
2019-02-28T15:56:40.076Z,84.80
2019-02-28T15:59:14.736Z,88.00
2019-02-28T16:01:43.433Z,90.00
2019-02-28T16:04:13.287Z,90.40
2019-02-28T16:06:44.233Z,92.50
2019-02-28T16:09:18.807Z,92.50
2019-02-28T16:11:47.635Z,93.20
2019-02-28T16:14:17.400Z,92.60
2019-02-28T16:16:48.626Z,92.20
2019-02-28T16:19:21.917Z,92.00
2019-02-28T16:21:50.981Z,90.80
2019-02-28T16:24:21.371Z,89.60
2019-02-28T16:26:53.405Z,86.40
2019-02-28T16:29:23.776Z,90.40
2019-02-28T16:31:53.608Z,90.60
2019-02-28T16:34:23.371Z,89.60
2019-02-28T16:36:53.553Z,88.50
2019-02-28T16:39:27.642Z,87.60
2019-02-28T16:41:58.196Z,88.20
2019-02-28T16:44:30.897Z,90.10
2019-02-28T16:47:00.743Z,89.20
2019-02-28T16:49:32.730Z,86.00
2019-02-28T16:52:06.069Z,87.40
2019-02-28T16:54:35.622Z,88.70
2019-02-28T16:57:05.283Z,90.30
2019-02-28T16:59:36.871Z,89.10
2019-02-28T17:02:06.731Z,86.20
2019-02-28T17:04:37.674Z,90.20
2019-02-28T17:07:10.467Z,90.40
2019-02-28T17:09:43.591Z,90.90
2019-02-28T17:12:35.065Z,91.30
2019-02-28T17:15:10.639Z,92.50
2019-02-28T17:18:00.852Z,92.40
2019-02-28T17:20:31.111Z,92.60
2019-02-28T17:23:02.495Z,92.00
2019-02-28T17:25:32.838Z,92.30
2019-02-28T17:28:15.279Z,92.20
2019-02-28T17:31:08.451Z,90.80
2019-02-28T17:33:39.539Z,91.90
2019-02-28T17:36:11.686Z,90.70
2019-02-28T17:38:41.594Z,87.60
2019-02-28T17:41:12.688Z,90.70
2019-02-28T17:43:43.952Z,90.40
2019-02-28T17:46:13.988Z,90.30
2019-02-28T17:49:16.136Z,91.20
2019-02-28T17:51:55.431Z,91.00
2019-02-28T17:55:02.160Z,92.20
2019-02-28T17:57:48.751Z,93.50
2019-02-28T18:01:16.675Z,94.80
2019-02-28T18:04:24.148Z,94.80
2019-02-28T18:07:30.107Z,92.00
2019-02-28T18:10:34.111Z,91.30
2019-02-28T18:13:46.809Z,89.30
2019-02-28T18:16:54.427Z,90.30
2019-02-28T18:19:42.792Z,91.10
2019-02-28T18:22:48.763Z,90.50
2019-02-28T18:25:39.951Z,92.80
2019-02-28T18:28:58.128Z,91.20
2019-02-28T18:31:26.644Z,89.30
2019-02-28T18:34:10.415Z,86.90
2019-02-28T18:36:43.100Z,87.20
2019-02-28T18:39:13.290Z,86.90
2019-02-28T18:41:43.287Z,89.60
2019-02-28T18:44:13.051Z,88.80
2019-02-28T18:46:44.043Z,89.50
2019-02-28T18:49:15.401Z,90.40
2019-02-28T18:51:45.496Z,90.00
2019-02-28T18:54:16.428Z,88.70
2019-02-28T18:56:47.283Z,90.30
2019-02-28T18:59:18.139Z,90.90
2019-02-28T19:01:47.831Z,90.70
2019-02-28T19:04:17.585Z,91.00
2019-02-28T19:06:50.071Z,91.30
2019-02-28T19:09:26.623Z,90.60
2019-02-28T19:11:56.651Z,91.00
2019-02-28T19:14:26.344Z,92.10
2019-02-28T19:16:56.838Z,93.30
2019-02-28T19:19:26.612Z,93.40
2019-02-28T19:21:56.199Z,95.40
2019-02-28T19:24:26.951Z,95.30
2019-02-28T19:26:57.896Z,93.50
2019-02-28T19:29:27.626Z,91.70
2019-02-28T19:31:57.307Z,92.10
2019-02-28T19:34:27.026Z,91.60
2019-02-28T19:36:57.819Z,92.10
2019-02-28T19:39:27.828Z,91.90
2019-02-28T19:41:57.455Z,92.70
2019-02-28T19:44:27.191Z,91.50
2019-02-28T19:46:57.071Z,90.70
2019-02-28T19:49:28.107Z,90.90
2019-02-28T19:51:58.349Z,92.10
2019-02-28T19:54:29.057Z,90.90
2019-02-28T19:57:02.399Z,90.50
2019-02-28T19:59:32.476Z,90.30
2019-02-28T20:02:03.086Z,90.30
2019-02-28T20:04:33.784Z,89.10
2019-02-28T20:07:03.423Z,84.90
2019-02-28T20:09:34.129Z,86.70
2019-02-28T20:12:03.954Z,90.90
2019-02-28T20:14:33.613Z,90.10
2019-02-28T20:17:03.344Z,87.60
2019-02-28T20:19:33.153Z,91.00
2019-02-28T20:22:03.217Z,90.20
2019-02-28T20:24:34.031Z,90.00
2019-02-28T20:27:06.175Z,90.10
2019-02-28T20:29:35.895Z,90.90
2019-02-28T20:32:05.756Z,92.90
2019-02-28T20:34:35.458Z,92.80
2019-02-28T20:37:06.099Z,92.40
2019-02-28T20:39:36.263Z,91.70
2019-02-28T20:42:06.174Z,91.60
2019-02-28T20:44:35.879Z,92.60
2019-02-28T20:47:05.959Z,91.10
2019-02-28T20:49:35.843Z,91.00
2019-02-28T20:52:05.703Z,91.20
2019-02-28T20:54:36.343Z,92.80
2019-02-28T20:57:08.746Z,93.90
2019-02-28T20:59:38.547Z,92.10
2019-02-28T21:02:08.778Z,91.50
2019-02-28T21:04:38.438Z,92.10
2019-02-28T21:07:08.998Z,94.20
2019-02-28T21:09:44.771Z,93.90
2019-02-28T21:12:10.140Z,94.20
2019-02-28T21:14:39.860Z,95.30
2019-02-28T21:17:09.856Z,97.30
2019-02-28T21:19:39.423Z,95.50
2019-02-28T21:22:10.539Z,95.30
2019-02-28T21:24:41.661Z,92.70
2019-02-28T21:27:11.511Z,93.10
2019-02-28T21:29:41.125Z,92.80
2019-02-28T21:32:11.181Z,92.30
2019-02-28T21:34:41.620Z,91.00
2019-02-28T21:37:11.360Z,92.50
2019-02-28T21:39:40.998Z,90.80
2019-02-28T21:42:13.759Z,91.60
2019-02-28T21:44:43.847Z,90.90
2019-02-28T21:47:14.184Z,89.70
2019-02-28T21:49:43.836Z,90.60
2019-02-28T21:52:13.743Z,91.00
2019-02-28T21:54:43.390Z,90.80
2019-02-28T21:57:15.223Z,91.50
2019-02-28T21:59:46.256Z,90.40
2019-02-28T22:02:16.060Z,89.70
2019-02-28T22:04:46.094Z,91.10
2019-02-28T22:07:16.756Z,89.40
2019-02-28T22:09:46.484Z,90.70
2019-02-28T22:12:16.070Z,89.70
2019-02-28T22:14:45.651Z,90.00
2019-02-28T22:17:16.511Z,89.30
2019-02-28T22:19:46.107Z,87.80
2019-02-28T22:22:15.740Z,88.40
2019-02-28T22:24:45.441Z,86.60
2019-02-28T22:27:17.008Z,85.70
2019-02-28T22:29:46.680Z,89.20
2019-02-28T22:32:24.523Z,88.50
2019-02-28T22:34:57.726Z,88.10
2019-02-28T22:37:27.488Z,87.70
2019-02-28T22:39:58.066Z,87.30
2019-02-28T22:42:27.903Z,90.20
2019-02-28T22:44:57.883Z,89.30
2019-02-28T22:47:28.979Z,90.80
2019-02-28T22:50:00.318Z,90.50
2019-02-28T22:52:31.743Z,88.70
2019-02-28T22:55:03.187Z,89.10
2019-02-28T22:57:33.134Z,87.70
2019-02-28T23:00:04.823Z,89.70
2019-02-28T23:02:35.880Z,88.60
2019-02-28T23:05:05.860Z,88.00
2019-02-28T23:07:37.235Z,88.50
2019-02-28T23:10:08.805Z,89.20
2019-02-28T23:12:40.340Z,87.30
2019-02-28T23:15:10.184Z,88.80
2019-02-28T23:17:40.268Z,87.80
2019-02-28T23:20:11.716Z,86.50
2019-02-28T23:22:42.798Z,87.50
2019-02-28T23:25:13.739Z,90.70
2019-02-28T23:27:43.379Z,91.10
2019-02-28T23:30:54.391Z,91.20
2019-02-28T23:33:24.054Z,89.60
2019-02-28T23:35:55.423Z,91.30
2019-02-28T23:38:25.131Z,92.70
2019-02-28T23:40:57.259Z,92.40
2019-02-28T23:43:28.335Z,91.70
2019-02-28T23:45:57.940Z,92.70
2019-02-28T23:48:28.733Z,93.80
2019-02-28T23:50:59.015Z,94.60
2019-02-28T23:53:28.760Z,94.60
2019-02-28T23:55:58.416Z,97.50
2019-02-28T23:58:28.028Z,97.40
